Terminal Aerodrome Forecast
Issued by NWS

Home | Current Version | Previous Version | Text Only | Print | Product List | Glossary On
Versions: 1 2 3 4 5 6 7 8 9 10 11 12 13 14 15
382
FTUS42 KTBW 191958 AAA
TAFRSW
TAF AMD
KRSW 191958Z 1920/2018 18010KT P6SM SCT040 SCT080
     FM200200 08007KT P6SM FEW020
     FM201500 13013G20KT P6SM SCT025 BKN100=

USA.gov is the U.S. government's official web portal to all federal, state and local government web resources and services.